Time;durP1;ratioP1;P1;durP2;ratioP2;P2;SDS_P1;SDS_P2;PMS_P1;PMS_P2;Temp;Humidity;BMP_temperature;BMP_pressure;BME280_temperature;BME280_humidity;BME280_pressure;Samples;Min_cycle;Max_cycle;Signal;HPM_P1;HPM_P2
2022/01/28 02:13:46;;;;;;;29.85;4.32;;;;;;;;;;4901783;29;20041;-80
2022/01/28 02:20:16;;;;;;;;;;;;;;;;;;;;;
2022/01/28 02:22:56;;;;;;;;;;;;;;;;;;;;;
2022/01/28 03:33:08;;;;;;;;;;;;;;;;;;;;;
2022/01/28 03:36:15;;;;;;;21.42;3.38;;;;;;;;;;4799504;29;20069;-81
2022/01/28 03:38:50;;;;;;;35.42;3.92;;;;;;;;;;4949448;29;20044;-81
2022/01/28 03:41:19;;;;;;;19.20;3.08;;;;;;;;;;4948650;28;20071;-80
2022/01/28 03:43:49;;;;;;;25.00;4.10;;;;;;;;;;4980072;28;20035;-81
2022/01/28 03:46:25;;;;;;;31.17;3.70;;;;;;;;;;4980897;28;20039;-79
2022/01/28 03:48:59;;;;;;;24.92;3.97;;;;;;;;;;4965537;28;20031;-82
2022/01/28 03:51:36;;;;;;;25.48;3.40;;;;;;;;;;4960621;29;20046;-80
2022/01/28 03:55:03;;;;;;;22.27;3.47;;;;;;;;;;4940841;29;20125;-81
2022/01/28 04:13:35;;;;;;;22.65;3.38;;;;;;;;;;4960798;29;20054;-79
2022/01/28 04:16:27;;;;;;;21.00;3.33;;;;;;;;;;4957010;29;20056;-81
2022/01/28 04:18:51;;;;;;;23.88;3.78;;;;;;;;;;4960510;29;20023;-81
2022/01/28 04:21:20;;;;;;;22.52;3.13;;;;;;;;;;4929244;29;20039;-80
2022/01/28 04:23:58;;;;;;;25.65;3.63;;;;;;;;;;4960130;29;20104;-81
2022/01/28 04:26:31;;;;;;;28.13;4.20;;;;;;;;;;4959900;29;20059;-81
2022/01/28 04:29:00;;;;;;;32.80;4.60;;;;;;;;;;4940573;29;20071;-81
2022/01/28 04:31:42;;;;;;;21.65;4.20;;;;;;;;;;4979906;28;20079;-81
2022/01/28 04:34:11;;;;;;;19.55;3.58;;;;;;;;;;4963715;28;20103;-82
2022/01/28 04:37:05;;;;;;;24.67;4.07;;;;;;;;;;4963950;28;20083;-83
2022/01/28 04:43:08;;;;;;;19.83;3.47;;;;;;;;;;4980215;28;20043;-81
2022/01/28 04:49:51;;;;;;;25.10;3.95;;;;;;;;;;4892764;29;20044;-84
2022/01/28 05:01:48;;;;;;;24.60;4.07;;;;;;;;;;4902624;29;20061;-84
2022/01/28 05:07:50;;;;;;;26.98;4.20;;;;;;;;;;4885091;29;20037;-81
2022/01/28 05:10:44;;;;;;;21.55;3.65;;;;;;;;;;4873550;29;20057;-83
2022/01/28 05:16:32;;;;;;;28.45;3.78;;;;;;;;;;4983589;28;20023;-83
2022/01/28 05:27:46;;;;;;;25.10;3.50;;;;;;;;;;4983605;28;20051;-81
2022/01/28 05:30:23;;;;;;;22.95;3.10;;;;;;;;;;4983124;28;20119;-80
2022/01/28 05:32:55;;;;;;;25.98;4.03;;;;;;;;;;4968195;28;20043;-81
2022/01/28 05:35:23;;;;;;;19.95;3.53;;;;;;;;;;4982331;28;20050;-80
2022/01/28 05:38:05;;;;;;;25.27;3.83;;;;;;;;;;4981720;29;20020;-79
2022/01/28 05:40:31;;;;;;;22.77;3.72;;;;;;;;;;4980918;29;20058;-80
2022/01/28 05:43:02;;;;;;;20.40;3.38;;;;;;;;;;4981206;29;20078;-79
2022/01/28 05:45:34;;;;;;;17.65;3.40;;;;;;;;;;4966052;28;20043;-79
2022/01/28 05:48:16;;;;;;;23.73;3.85;;;;;;;;;;4981119;29;20043;-80
2022/01/28 05:50:50;;;;;;;23.40;3.70;;;;;;;;;;4966510;28;20059;-79
2022/01/28 05:53:35;;;;;;;22.13;3.30;;;;;;;;;;4982679;28;20027;-78
2022/01/28 05:56:26;;;;;;;21.95;3.58;;;;;;;;;;4982751;28;20039;-78
2022/01/28 05:58:59;;;;;;;19.42;4.18;;;;;;;;;;4966114;29;20099;-80
2022/01/28 06:01:27;;;;;;;17.98;3.40;;;;;;;;;;4978047;29;20067;-79
2022/01/28 06:04:21;;;;;;;;;;;;;;;;;;;;;
2022/01/28 06:07:20;;;;;;;29.35;4.13;;;;;;;;;;4977938;29;20053;-79
2022/01/28 06:09:51;;;;;;;19.67;3.55;;;;;;;;;;4962619;29;20058;-78
2022/01/28 06:12:31;;;;;;;26.55;3.80;;;;;;;;;;4963225;29;20023;-80
2022/01/28 06:15:04;;;;;;;17.55;3.75;;;;;;;;;;4977367;29;20058;-78
2022/01/28 06:17:42;;;;;;;20.42;3.70;;;;;;;;;;4947291;28;20091;-81
2022/01/28 06:20:48;;;;;;;24.85;4.15;;;;;;;;;;4978010;29;20042;-78
2022/01/28 06:23:15;;;;;;;23.48;3.97;;;;;;;;;;4944890;29;20039;-78
2022/01/28 06:25:49;;;;;;;21.63;4.05;;;;;;;;;;4948636;29;20035;-81
2022/01/28 06:28:23;;;;;;;22.77;3.55;;;;;;;;;;4947739;29;20042;-80
2022/01/28 06:30:51;;;;;;;36.78;4.80;;;;;;;;;;4944834;29;20035;-78
2022/01/28 06:33:18;;;;;;;22.63;4.32;;;;;;;;;;4944328;29;20046;-78
2022/01/28 06:35:52;;;;;;;22.50;3.95;;;;;;;;;;4975780;29;20039;-79
2022/01/28 06:38:37;;;;;;;26.73;4.15;;;;;;;;;;4962148;29;20046;-78
2022/01/28 06:41:06;;;;;;;25.65;3.42;;;;;;;;;;4960128;29;20063;-79
2022/01/28 06:43:34;;;;;;;27.85;4.18;;;;;;;;;;4936221;29;20123;-80
2022/01/28 06:46:22;;;;;;;21.70;4.25;;;;;;;;;;4963039;29;20058;-78
2022/01/28 06:48:55;;;;;;;26.38;4.25;;;;;;;;;;4947490;29;20102;-78
2022/01/28 06:51:37;;;;;;;25.20;4.53;;;;;;;;;;4975928;28;20047;-78
2022/01/28 06:54:06;;;;;;;;;;;;;;;;;;4958515;29;20110;-80
2022/01/28 06:56:33;;;;;;;18.38;4.38;;;;;;;;;;4956645;29;19989;-80
2022/01/28 06:59:00;;;;;;;30.23;5.00;;;;;;;;;;4957747;29;20081;-80
2022/01/28 07:01:27;;;;;;;23.80;4.55;;;;;;;;;;4942833;29;20043;-78
2022/01/28 07:04:01;;;;;;;22.80;4.10;;;;;;;;;;4947793;28;20035;-79
2022/01/28 07:06:29;;;;;;;23.20;4.95;;;;;;;;;;4965508;28;20055;-79
2022/01/28 07:09:01;;;;;;;19.27;4.78;;;;;;;;;;4949644;29;20165;-80
2022/01/28 07:11:28;;;;;;;29.80;5.47;;;;;;;;;;4965475;28;20050;-77
2022/01/28 07:13:58;;;;;;;26.85;5.45;;;;;;;;;;4965817;28;20029;-77
2022/01/28 07:16:26;;;;;;;25.95;5.22;;;;;;;;;;4965011;28;20066;-78
2022/01/28 07:18:53;;;;;;;30.67;6.00;;;;;;;;;;4981006;28;20023;-77
2022/01/28 07:21:32;;;;;;;29.33;6.00;;;;;;;;;;4949613;28;20053;-77
2022/01/28 07:24:03;;;;;;;34.30;5.70;;;;;;;;;;4980926;28;20031;-78
2022/01/28 07:26:31;;;;;;;26.95;6.13;;;;;;;;;;4965180;28;20035;-77
2022/01/28 07:29:04;;;;;;;33.83;5.70;;;;;;;;;;4964560;28;20059;-79
2022/01/28 07:31:41;;;;;;;25.90;5.38;;;;;;;;;;4964353;28;20043;-79
2022/01/28 07:34:13;;;;;;;33.97;6.10;;;;;;;;;;4979549;28;20034;-79
2022/01/28 07:36:46;;;;;;;21.05;5.05;;;;;;;;;;4964704;28;20027;-80
2022/01/28 07:39:16;;;;;;;26.80;5.43;;;;;;;;;;4964098;28;20031;-79
2022/01/28 07:42:35;;;;;;;28.75;5.55;;;;;;;;;;4971114;28;20058;-78
2022/01/28 07:45:04;;;;;;;30.23;5.40;;;;;;;;;;4963496;28;20023;-79
2022/01/28 07:47:38;;;;;;;30.13;5.80;;;;;;;;;;4981197;28;20019;-77
2022/01/28 07:50:20;;;;;;;30.73;5.63;;;;;;;;;;4981229;28;20053;-76
2022/01/28 07:52:53;;;;;;;36.80;5.85;;;;;;;;;;4980708;28;20122;-79
2022/01/28 07:55:27;;;;;;;39.53;5.45;;;;;;;;;;4964802;28;20083;-80
2022/01/28 07:58:03;;;;;;;29.55;5.55;;;;;;;;;;4981000;28;20024;-79
2022/01/28 08:00:37;;;;;;;27.48;5.35;;;;;;;;;;4948573;28;20083;-79
2022/01/28 08:03:05;;;;;;;26.70;4.93;;;;;;;;;;4963103;29;20035;-79
2022/01/28 08:05:32;;;;;;;26.33;4.90;;;;;;;;;;4963180;29;20027;-78
2022/01/28 08:08:13;;;;;;;30.17;5.38;;;;;;;;;;4948541;29;20039;-78
2022/01/28 08:10:41;;;;;;;25.58;5.03;;;;;;;;;;4946531;29;20095;-78
2022/01/28 08:13:13;;;;;;;26.33;4.95;;;;;;;;;;4948329;28;20031;-79
2022/01/28 08:15:40;;;;;;;29.58;5.20;;;;;;;;;;4964075;28;20055;-80
2022/01/28 08:18:09;;;;;;;23.90;5.15;;;;;;;;;;4963418;28;20047;-77
2022/01/28 08:20:37;;;;;;;24.00;5.18;;;;;;;;;;4962999;28;20047;-78
2022/01/28 08:23:23;;;;;;;23.60;5.28;;;;;;;;;;4995198;28;20039;-78
2022/01/28 08:25:54;;;;;;;25.90;5.53;;;;;;;;;;4978256;28;20050;-78
2022/01/28 08:28:26;;;;;;;23.98;5.40;;;;;;;;;;4963267;28;20447;-81
2022/01/28 08:30:56;;;;;;;27.48;5.30;;;;;;;;;;4964232;28;20022;-80
2022/01/28 08:33:23;;;;;;;32.85;5.75;;;;;;;;;;4948521;29;20079;-80
2022/01/28 08:35:53;;;;;;;26.10;5.30;;;;;;;;;;4948173;29;20028;-81
2022/01/28 08:38:36;;;;;;;25.75;5.15;;;;;;;;;;4962455;29;20036;-81
2022/01/28 08:41:03;;;;;;;25.85;4.88;;;;;;;;;;4935571;29;20043;-80
2022/01/28 08:43:32;;;;;;;28.50;5.10;;;;;;;;;;4951384;29;20408;-80
2022/01/28 08:46:00;;;;;;;22.73;4.53;;;;;;;;;;4945801;29;20039;-81
2022/01/28 08:48:29;;;;;;;32.08;5.75;;;;;;;;;;4965482;29;20086;-81
2022/01/28 08:50:56;;;;;;;27.92;5.43;;;;;;;;;;4951239;29;20019;-81
2022/01/28 08:53:23;;;;;;;25.65;4.95;;;;;;;;;;4964412;29;20042;-81
2022/01/28 08:56:01;;;;;;;32.30;4.93;;;;;;;;;;4948925;29;20063;-82
2022/01/28 08:58:27;;;;;;;33.72;4.80;;;;;;;;;;4949675;29;20043;-82
2022/01/28 09:00:53;;;;;;;29.63;5.00;;;;;;;;;;4949007;29;20043;-82
2022/01/28 09:03:21;;;;;;;35.10;5.70;;;;;;;;;;4964889;29;20094;-82
2022/01/28 09:05:47;;;;;;;28.75;4.90;;;;;;;;;;4964334;29;20043;-82
2022/01/28 09:08:13;;;;;;;23.90;5.18;;;;;;;;;;4949078;29;20099;-80
2022/01/28 09:10:46;;;;;;;30.42;5.18;;;;;;;;;;4948866;29;20043;-82
2022/01/28 09:13:23;;;;;;;29.92;5.13;;;;;;;;;;4950292;29;20094;-80
2022/01/28 09:15:50;;;;;;;24.23;4.25;;;;;;;;;;4951353;28;20059;-81
2022/01/28 09:18:17;;;;;;;24.77;4.45;;;;;;;;;;4951455;28;20035;-80
2022/01/28 09:20:43;;;;;;;22.23;4.43;;;;;;;;;;4948863;29;20047;-79
2022/01/28 09:23:16;;;;;;;25.67;4.65;;;;;;;;;;4965599;29;20042;-78
2022/01/28 09:25:43;;;;;;;32.95;5.28;;;;;;;;;;4965808;28;20028;-79
2022/01/28 09:28:10;;;;;;;31.30;5.63;;;;;;;;;;4950016;29;20027;-80
2022/01/28 09:30:40;;;;;;;36.58;5.18;;;;;;;;;;4948545;29;20054;-79
2022/01/28 09:33:14;;;;;;;21.23;5.13;;;;;;;;;;4981666;28;20039;-79
2022/01/28 09:35:43;;;;;;;30.17;4.75;;;;;;;;;;4949486;29;20040;-81
2022/01/28 09:38:11;;;;;;;33.40;5.10;;;;;;;;;;4966265;28;20054;-78
2022/01/28 09:40:37;;;;;;;24.15;4.68;;;;;;;;;;4950106;29;20105;-79
2022/01/28 09:43:19;;;;;;;;;;;;;;;;;;;;;
2022/01/28 09:46:04;;;;;;;27.25;5.05;;;;;;;;;;4968260;28;20067;-79
2022/01/28 09:48:48;;;;;;;22.52;5.20;;;;;;;;;;4942065;29;20052;-80
2022/01/28 09:51:14;;;;;;;36.60;5.75;;;;;;;;;;4925934;29;20048;-81
2022/01/28 09:53:44;;;;;;;30.88;5.30;;;;;;;;;;4926152;29;20036;-80
2022/01/28 09:56:12;;;;;;;32.42;4.97;;;;;;;;;;4942080;29;20103;-79
2022/01/28 09:58:51;;;;;;;33.08;4.78;;;;;;;;;;4941490;29;20064;-79
2022/01/28 10:33:38;;;;;;;30.73;4.95;;;;;;;;;;4794172;29;20046;-81
2022/01/28 10:36:05;;;;;;;36.35;5.00;;;;;;;;;;4816103;29;20034;-80
2022/01/28 10:38:46;;;;;;;23.13;4.50;;;;;;;;;;4889179;29;20063;-79
2022/01/28 10:41:16;;;;;;;27.33;5.05;;;;;;;;;;4948686;29;20058;-79
2022/01/28 10:43:43;;;;;;;40.55;5.05;;;;;;;;;;4947199;29;20043;-81
2022/01/28 10:46:09;;;;;;;31.10;5.30;;;;;;;;;;4963765;29;20063;-82
2022/01/28 10:48:52;;;;;;;38.47;5.18;;;;;;;;;;4948644;29;20070;-79
2022/01/28 10:51:28;;;;;;;28.92;5.15;;;;;;;;;;4949189;29;20047;-79
2022/01/28 10:54:11;;;;;;;30.90;4.47;;;;;;;;;;4947580;29;20039;-79
2022/01/28 10:56:47;;;;;;;26.55;4.65;;;;;;;;;;4945397;29;20050;-79
2022/01/28 10:59:14;;;;;;;32.88;4.55;;;;;;;;;;4959787;29;20039;-81
2022/01/28 11:01:42;;;;;;;23.77;4.55;;;;;;;;;;4945713;29;20027;-80
2022/01/28 11:04:11;;;;;;;31.30;4.40;;;;;;;;;;4944446;28;20106;-79
2022/01/28 11:06:39;;;;;;;20.83;4.32;;;;;;;;;;4978653;28;20039;-81
2022/01/28 11:09:05;;;;;;;23.88;3.92;;;;;;;;;;4963114;29;20054;-79
2022/01/28 11:11:31;;;;;;;32.45;4.65;;;;;;;;;;4946903;29;20035;-80
2022/01/28 11:13:58;;;;;;;26.30;4.03;;;;;;;;;;4947194;29;20050;-81
2022/01/28 11:16:25;;;;;;;30.30;4.63;;;;;;;;;;4947768;29;20042;-80
2022/01/28 11:18:55;;;;;;;23.92;4.00;;;;;;;;;;4973839;29;20440;-81
2022/01/28 11:21:29;;;;;;;21.85;4.15;;;;;;;;;;4933571;29;20099;-81
2022/01/28 11:24:04;;;;;;;22.88;3.88;;;;;;;;;;4936300;29;20367;-82
2022/01/28 11:26:44;;;;;;;25.92;4.32;;;;;;;;;;4962347;29;20095;-80
2022/01/28 11:29:21;;;;;;;26.95;4.22;;;;;;;;;;4962718;29;20043;-81
2022/01/28 11:31:57;;;;;;;24.85;4.47;;;;;;;;;;4946682;29;20063;-81
2022/01/28 11:34:24;;;;;;;22.48;4.70;;;;;;;;;;4948956;29;20048;-81
2022/01/28 11:36:58;;;;;;;23.98;4.40;;;;;;;;;;4964307;28;20053;-81
2022/01/28 11:39:38;;;;;;;24.42;4.75;;;;;;;;;;4946996;29;20047;-81
2022/01/28 11:42:41;;;;;;;29.77;4.43;;;;;;;;;;4947881;29;20079;-80
2022/01/28 11:45:08;;;;;;;25.55;4.50;;;;;;;;;;4960711;29;20044;-81
2022/01/28 11:47:35;;;;;;;31.85;5.07;;;;;;;;;;4947481;29;20094;-81
2022/01/28 11:50:08;;;;;;;24.40;4.50;;;;;;;;;;4962536;29;20055;-81
2022/01/28 11:52:54;;;;;;;20.65;4.40;;;;;;;;;;4963439;28;20054;-81
2022/01/28 11:55:21;;;;;;;24.60;4.32;;;;;;;;;;4978375;29;20058;-80
2022/01/28 11:58:01;;;;;;;24.60;4.38;;;;;;;;;;4962700;28;20071;-80
2022/01/28 12:00:44;;;;;;;26.48;4.47;;;;;;;;;;4948673;28;20066;-78
2022/01/28 12:03:17;;;;;;;21.40;4.23;;;;;;;;;;4948798;28;20062;-77
2022/01/28 12:05:44;;;;;;;28.38;4.93;;;;;;;;;;4948616;28;20036;-80
2022/01/28 12:08:10;;;;;;;34.95;4.85;;;;;;;;;;4962936;29;20027;-81
2022/01/28 12:10:41;;;;;;;30.33;4.93;;;;;;;;;;4947168;29;20023;-81
2022/01/28 12:16:15;;;;;;;24.30;4.35;;;;;;;;;;4975568;28;20066;-81
2022/01/28 12:19:15;;;;;;;30.42;4.50;;;;;;;;;;4967180;28;20034;-78
2022/01/28 12:21:42;;;;;;;28.83;4.55;;;;;;;;;;4963310;28;20047;-82
2022/01/28 12:24:24;;;;;;;19.65;4.15;;;;;;;;;;4946680;29;20051;-82
2022/01/28 12:26:57;;;;;;;22.05;3.88;;;;;;;;;;4961740;29;20035;-82
2022/01/28 12:29:31;;;;;;;26.88;4.00;;;;;;;;;;4947290;29;20066;-80
2022/01/28 12:32:03;;;;;;;23.20;4.43;;;;;;;;;;4979775;29;20035;-82
2022/01/28 12:34:29;;;;;;;20.50;3.63;;;;;;;;;;4962820;28;20071;-78
2022/01/28 12:37:05;;;;;;;25.20;4.28;;;;;;;;;;4979411;28;20047;-79
2022/01/28 12:39:33;;;;;;;21.25;3.85;;;;;;;;;;4946980;28;20041;-79
2022/01/28 12:42:08;;;;;;;26.73;3.72;;;;;;;;;;4961520;28;20055;-80
2022/01/28 12:44:35;;;;;;;25.55;3.78;;;;;;;;;;4946006;29;20191;-80
2022/01/28 12:47:09;;;;;;;24.23;4.00;;;;;;;;;;4945937;29;20047;-80
2022/01/28 12:49:36;;;;;;;31.15;4.32;;;;;;;;;;4946257;29;20051;-82
2022/01/28 12:52:11;;;;;;;23.00;4.00;;;;;;;;;;4947178;29;20031;-80
2022/01/28 12:54:44;;;;;;;24.23;3.95;;;;;;;;;;4945954;29;20027;-82
2022/01/28 12:57:25;;;;;;;24.50;3.97;;;;;;;;;;4978856;28;20023;-80
2022/01/28 13:00:14;;;;;;;30.25;4.32;;;;;;;;;;4962367;28;20043;-82
2022/01/28 13:03:17;;;;;;;25.23;4.25;;;;;;;;;;4961866;28;20027;-82
2022/01/28 13:05:53;;;;;;;21.73;3.95;;;;;;;;;;4962719;28;20038;-78
2022/01/28 13:08:29;;;;;;;23.98;4.65;;;;;;;;;;4947431;29;20043;-80
2022/01/28 13:10:58;;;;;;;22.23;4.22;;;;;;;;;;4947262;28;20134;-77
2022/01/28 13:13:38;;;;;;;19.67;3.72;;;;;;;;;;4946229;29;20360;-82
2022/01/28 13:16:04;;;;;;;18.80;3.95;;;;;;;;;;4932677;29;20058;-80
2022/01/28 13:18:31;;;;;;;22.80;3.97;;;;;;;;;;4935945;29;20039;-78
2022/01/28 13:20:59;;;;;;;24.63;4.63;;;;;;;;;;4945132;29;20038;-81
2022/01/28 13:23:50;;;;;;;25.45;4.20;;;;;;;;;;4961597;28;20066;-79
2022/01/28 13:26:17;;;;;;;30.38;4.47;;;;;;;;;;4963471;28;20054;-79
2022/01/28 13:29:09;;;;;;;20.52;4.32;;;;;;;;;;4967331;29;20043;-79
2022/01/28 13:31:46;;;;;;;28.33;4.10;;;;;;;;;;4981152;28;20043;-78
2022/01/28 13:34:20;;;;;;;27.70;4.03;;;;;;;;;;4967524;28;20047;-79
2022/01/28 13:36:48;;;;;;;31.17;4.30;;;;;;;;;;4966098;28;20028;-78
2022/01/28 13:39:21;;;;;;;25.42;3.97;;;;;;;;;;4980794;29;20087;-80
2022/01/28 13:42:13;;;;;;;24.58;4.40;;;;;;;;;;4969313;28;20034;-80
2022/01/28 13:44:49;;;;;;;18.58;3.55;;;;;;;;;;4966834;28;20043;-78
2022/01/28 13:47:20;;;;;;;19.15;3.63;;;;;;;;;;4966775;29;20039;-79
2022/01/28 13:49:51;;;;;;;29.27;4.28;;;;;;;;;;4951075;28;20050;-79
2022/01/28 13:52:28;;;;;;;28.30;4.65;;;;;;;;;;4951745;29;20040;-79
2022/01/28 13:55:00;;;;;;;25.75;3.92;;;;;;;;;;4982159;29;20027;-79
2022/01/28 13:57:31;;;;;;;23.17;4.20;;;;;;;;;;4950693;29;20130;-78
2022/01/28 14:00:07;;;;;;;21.33;4.22;;;;;;;;;;4948273;29;20019;-79
2022/01/28 14:02:40;;;;;;;25.63;4.47;;;;;;;;;;4950402;29;20035;-79
2022/01/28 14:05:11;;;;;;;;;;;;;;;;;;4948971;29;20087;-78
2022/01/28 14:07:51;;;;;;;21.10;3.90;;;;;;;;;;4963611;29;19910;-79
2022/01/28 14:10:31;;;;;;;26.23;5.03;;;;;;;;;;4979383;29;20034;-79
2022/01/28 14:12:59;;;;;;;19.63;4.95;;;;;;;;;;4948211;29;20051;-79
2022/01/28 14:15:53;;;;;;;17.33;4.47;;;;;;;;;;4965715;29;20065;-79
2022/01/28 14:18:26;;;;;;;25.88;4.97;;;;;;;;;;4950775;29;20063;-77
2022/01/28 14:20:53;;;;;;;22.08;4.60;;;;;;;;;;4947002;29;20039;-80
2022/01/28 14:27:24;;;;;;;21.50;4.63;;;;;;;;;;4949951;29;20087;-80
2022/01/28 14:29:52;;;;;;;20.73;4.57;;;;;;;;;;4965111;29;20042;-79
2022/01/28 14:32:22;;;;;;;21.42;4.35;;;;;;;;;;4981253;28;20055;-80
2022/01/28 14:34:52;;;;;;;16.38;4.63;;;;;;;;;;4918503;29;20031;-82
2022/01/28 14:37:21;;;;;;;23.48;4.60;;;;;;;;;;4948465;29;20039;-82
2022/01/28 14:39:53;;;;;;;26.08;4.70;;;;;;;;;;4946787;29;20020;-82
2022/01/28 14:42:51;;;;;;;16.52;4.22;;;;;;;;;;4947490;29;20485;-79
2022/01/28 14:45:40;;;;;;;19.58;4.40;;;;;;;;;;4963401;29;20050;-79
2022/01/28 14:48:12;;;;;;;24.15;5.07;;;;;;;;;;4947384;29;20067;-79
2022/01/28 14:50:58;;;;;;;24.35;5.00;;;;;;;;;;4964447;29;20020;-79
2022/01/28 14:53:41;;;;;;;;;;;;;;;;;;;;;
2022/01/28 14:56:08;;;;;;;31.13;5.20;;;;;;;;;;4966520;28;20039;-80
2022/01/28 14:58:35;;;;;;;25.25;4.45;;;;;;;;;;4964712;29;20042;-81
2022/01/28 15:01:02;;;;;;;25.40;5.00;;;;;;;;;;4979245;28;20047;-82
2022/01/28 15:03:39;;;;;;;30.77;5.03;;;;;;;;;;4963103;29;20043;-79
2022/01/28 15:06:09;;;;;;;19.85;4.10;;;;;;;;;;4949118;29;20047;-81
2022/01/28 15:08:40;;;;;;;23.23;5.20;;;;;;;;;;4962703;29;20050;-79
2022/01/28 15:11:12;;;;;;;25.60;4.55;;;;;;;;;;4937055;29;20424;-78
2022/01/28 15:13:39;;;;;;;23.10;4.78;;;;;;;;;;4949225;29;20085;-82
2022/01/28 15:16:09;;;;;;;19.02;4.40;;;;;;;;;;4944423;29;20036;-81
2022/01/28 15:18:35;;;;;;;23.92;4.47;;;;;;;;;;4942976;29;20047;-81
2022/01/28 15:21:07;;;;;;;27.40;4.80;;;;;;;;;;4960645;29;20102;-79
2022/01/28 15:23:41;;;;;;;16.10;4.47;;;;;;;;;;4962602;28;20043;-80
2022/01/28 15:26:36;;;;;;;19.48;4.78;;;;;;;;;;4952323;29;20055;-82
2022/01/28 15:29:05;;;;;;;22.02;3.97;;;;;;;;;;4960917;29;20039;-82
2022/01/28 15:36:56;;;;;;;19.20;4.50;;;;;;;;;;4964068;29;20023;-78
2022/01/28 15:39:35;;;;;;;21.70;4.50;;;;;;;;;;4979892;29;20066;-78
2022/01/28 15:42:05;;;;;;;20.58;4.22;;;;;;;;;;4962829;29;20035;-77
2022/01/28 15:44:31;;;;;;;24.40;4.65;;;;;;;;;;4947889;28;20043;-78
2022/01/28 15:47:00;;;;;;;19.65;4.65;;;;;;;;;;4962672;29;20035;-79
2022/01/28 15:49:27;;;;;;;21.88;4.63;;;;;;;;;;4962500;29;20024;-79
2022/01/28 15:51:56;;;;;;;20.85;4.88;;;;;;;;;;4946852;29;20035;-79
2022/01/28 15:54:23;;;;;;;21.38;4.30;;;;;;;;;;4947389;29;20045;-79
2022/01/28 15:56:50;;;;;;;27.17;4.90;;;;;;;;;;4947303;29;20036;-80
2022/01/28 15:59:18;;;;;;;23.02;5.07;;;;;;;;;;4946768;29;20027;-80
2022/01/28 16:01:44;;;;;;;16.73;4.82;;;;;;;;;;4963198;29;20119;-79
2022/01/28 16:04:12;;;;;;;18.50;4.78;;;;;;;;;;4946765;29;20035;-79
2022/01/28 16:06:38;;;;;;;18.13;4.00;;;;;;;;;;4947256;29;20068;-79
2022/01/28 16:12:03;;;;;;;25.95;4.55;;;;;;;;;;4965656;29;20024;-79
2022/01/28 16:14:45;;;;;;;21.35;4.55;;;;;;;;;;4947752;29;20054;-80
2022/01/28 16:17:29;;;;;;;24.45;4.93;;;;;;;;;;4949839;29;20039;-80
2022/01/28 16:19:55;;;;;;;23.10;4.70;;;;;;;;;;4949918;29;20050;-80
2022/01/28 16:22:25;;;;;;;19.23;4.32;;;;;;;;;;4962995;29;20149;-78
2022/01/28 16:25:12;;;;;;;15.70;4.13;;;;;;;;;;4947528;28;20022;-81
2022/01/28 16:27:38;;;;;;;19.75;4.38;;;;;;;;;;4946443;29;20046;-80
2022/01/28 16:30:13;;;;;;;14.68;4.55;;;;;;;;;;4946142;29;20035;-80
2022/01/28 16:32:39;;;;;;;19.98;4.97;;;;;;;;;;4947184;29;20027;-80
2022/01/28 16:35:06;;;;;;;18.23;4.50;;;;;;;;;;4962627;28;20051;-79
2022/01/28 16:37:38;;;;;;;19.35;4.75;;;;;;;;;;4947319;29;20048;-81
2022/01/28 16:40:18;;;;;;;16.02;4.13;;;;;;;;;;4947056;28;20027;-79
2022/01/28 16:45:43;;;;;;;15.70;4.00;;;;;;;;;;4966634;28;20035;-80
2022/01/28 16:48:10;;;;;;;18.38;4.32;;;;;;;;;;4948661;28;20050;-80
2022/01/28 16:53:56;;;;;;;;;;;;;;;;;;4969668;29;20030;-81
2022/01/28 16:56:51;;;;;;;20.27;4.15;;;;;;;;;;4962202;29;19915;-80
2022/01/28 16:59:29;;;;;;;18.60;4.68;;;;;;;;;;4963233;28;20055;-81
2022/01/28 17:02:26;;;;;;;19.33;4.35;;;;;;;;;;4962026;28;20091;-82
2022/01/28 17:08:51;;;;;;;20.20;4.55;;;;;;;;;;4856833;29;20050;-81
2022/01/28 17:12:15;;;;;;;;;;;;;;;;;;;;;
2022/01/28 18:03:46;;;;;;;33.88;11.10;;;;;;;;;;4728938;30;20097;-79
2022/01/28 18:06:41;;;;;;;26.42;11.63;;;;;;;;;;4747971;30;20032;-79
2022/01/28 18:09:10;;;;;;;28.75;12.02;;;;;;;;;;4808962;29;20050;-82
2022/01/28 18:11:44;;;;;;;29.60;12.80;;;;;;;;;;4896948;29;20039;-78
2022/01/28 18:14:13;;;;;;;34.92;13.82;;;;;;;;;;4940940;29;20039;-79
2022/01/28 18:17:18;;;;;;;;;;;;;;;;;;;;;
2022/01/28 18:25:51;;;;;;;;;;;;;;;;;;;;;
2022/01/28 18:29:00;;;;;;;47.75;19.58;;;;;;;;;;4932726;29;20043;-79
2022/01/28 18:31:33;;;;;;;41.15;20.08;;;;;;;;;;4926939;29;20020;-80
2022/01/28 18:34:29;;;;;;;59.25;25.83;;;;;;;;;;4942276;29;20056;-79
2022/01/28 18:37:11;;;;;;;64.07;27.90;;;;;;;;;;4941461;29;20152;-79
2022/01/28 18:39:56;;;;;;;56.30;28.20;;;;;;;;;;4947140;28;20047;-81
2022/01/28 18:42:50;;;;;;;67.43;30.40;;;;;;;;;;4980248;29;20022;-79
2022/01/28 18:45:46;;;;;;;68.85;33.20;;;;;;;;;;4965891;29;20062;-80
2022/01/28 18:48:16;;;;;;;65.05;31.55;;;;;;;;;;4980329;28;20054;-80
2022/01/28 18:50:51;;;;;;;66.47;33.88;;;;;;;;;;4963833;28;20039;-77
2022/01/28 19:00:53;;;;;;;75.60;40.72;;;;;;;;;;4951837;29;20023;-80
2022/01/28 19:14:47;;;;;;;;;;;;;;;;;;;;;
2022/01/28 19:24:15;;;;;;;67.75;39.17;;;;;;;;;;4909930;29;20036;-79
2022/01/28 19:27:13;;;;;;;73.57;39.60;;;;;;;;;;4925974;29;20060;-80
2022/01/28 19:30:22;;;;;;;71.88;38.47;;;;;;;;;;4941531;29;20093;-80
2022/01/28 19:43:51;;;;;;;73.80;40.03;;;;;;;;;;4867142;29;20029;-79
2022/01/28 19:53:53;;;;;;;76.97;40.53;;;;;;;;;;4830661;29;20026;-80
2022/01/28 19:56:40;;;;;;;72.15;40.60;;;;;;;;;;4815332;29;20058;-81
2022/01/28 20:13:29;;;;;;;68.38;37.42;;;;;;;;;;4776127;29;20151;-78
2022/01/28 20:16:44;;;;;;;72.03;39.20;;;;;;;;;;4839022;29;20033;-79
2022/01/28 20:26:51;;;;;;;75.45;38.13;;;;;;;;;;4905190;29;20079;-79
2022/01/28 21:19:19;;;;;;;70.20;35.83;;;;;;;;;;4828849;29;20050;-79
2022/01/28 22:50:17;;;;;;;55.08;29.55;;;;;;;;;;4839317;29;20062;-82
2022/01/28 22:52:45;;;;;;;53.30;29.17;;;;;;;;;;4901800;29;20051;-83
2022/01/28 22:55:46;;;;;;;;;;;;;;;;;;;;;
2022/01/28 22:58:18;;;;;;;60.38;29.10;;;;;;;;;;4981895;28;20031;-83
2022/01/28 23:00:56;;;;;;;52.63;29.40;;;;;;;;;;4964872;28;20027;-84
2022/01/28 23:03:37;;;;;;;53.97;29.70;;;;;;;;;;4982129;28;20086;-83
2022/01/28 23:06:10;;;;;;;59.78;29.58;;;;;;;;;;4981653;28;20066;-83
2022/01/28 23:08:42;;;;;;;52.25;27.20;;;;;;;;;;4950136;28;20027;-83
2022/01/28 23:11:33;;;;;;;51.72;27.10;;;;;;;;;;4968659;28;20091;-84
2022/01/28 23:14:20;;;;;;;48.57;26.87;;;;;;;;;;4965186;28;20043;-85
2022/01/28 23:17:17;;;;;;;50.90;26.48;;;;;;;;;;4965919;28;20275;-82
2022/01/28 23:19:54;;;;;;;54.65;26.33;;;;;;;;;;4965460;28;20026;-82
2022/01/28 23:22:28;;;;;;;48.53;25.80;;;;;;;;;;4966282;28;20112;-83
2022/01/28 23:25:01;;;;;;;47.75;24.98;;;;;;;;;;4950204;29;20054;-83
2022/01/28 23:27:38;;;;;;;52.78;25.27;;;;;;;;;;4966886;28;20023;-84
2022/01/28 23:30:12;;;;;;;46.60;24.05;;;;;;;;;;4970602;28;20059;-83
2022/01/28 23:32:42;;;;;;;47.97;25.52;;;;;;;;;;4950600;28;20019;-84
2022/01/28 23:35:14;;;;;;;47.70;24.73;;;;;;;;;;4979697;28;20059;-83
2022/01/28 23:37:49;;;;;;;45.72;23.15;;;;;;;;;;4981215;28;20030;-84
2022/01/28 23:40:54;;;;;;;;;;;;;;;;;;;;;
2022/01/28 23:43:23;;;;;;;51.30;23.75;;;;;;;;;;4987904;23;20048;-83
2022/01/28 23:46:10;;;;;;;46.35;23.17;;;;;;;;;;5039060;28;20037;-83
2022/01/28 23:48:39;;;;;;;;;;;;;;;;;;5040198;28;20048;-83
2022/01/28 23:51:28;;;;;;;45.90;23.70;;;;;;;;;;5023276;28;19897;-84
2022/01/28 23:54:18;;;;;;;43.70;22.00;;;;;;;;;;5038987;28;20060;-85
2022/01/28 23:57:20;;;;;;;39.55;21.48;;;;;;;;;;5039027;28;20028;-83
2022/01/28 23:59:54;;;;;;;46.50;22.23;;;;;;;;;;5021941;28;20021;-82
